sensor_id;sensor_type;location;lat;lon;timestamp;P1;durP1;ratioP1;P2;durP2;ratioP2
36321;SDS011;23564;48.290;11.460;2022-10-16T00:00:37;6.68;;;2.45;;
36321;SDS011;23564;48.290;11.460;2022-10-16T00:03:04;14.85;;;2.47;;
36321;SDS011;23564;48.290;11.460;2022-10-16T00:05:31;6.40;;;2.20;;
36321;SDS011;23564;48.290;11.460;2022-10-16T00:07:56;4.43;;;2.22;;
36321;SDS011;23564;48.290;11.460;2022-10-16T00:10:22;7.65;;;2.58;;
36321;SDS011;23564;48.290;11.460;2022-10-16T00:12:48;4.90;;;2.13;;
36321;SDS011;23564;48.290;11.460;2022-10-16T00:15:14;4.95;;;2.28;;
36321;SDS011;23564;48.290;11.460;2022-10-16T00:17:40;3.97;;;1.95;;
36321;SDS011;23564;48.290;11.460;2022-10-16T00:20:06;7.15;;;2.50;;
36321;SDS011;23564;48.290;11.460;2022-10-16T00:22:32;5.40;;;1.80;;
36321;SDS011;23564;48.290;11.460;2022-10-16T00:24:58;2.53;;;1.65;;
36321;SDS011;23564;48.290;11.460;2022-10-16T00:27:23;3.10;;;1.88;;
36321;SDS011;23564;48.290;11.460;2022-10-16T00:29:49;7.22;;;2.17;;
36321;SDS011;23564;48.290;11.460;2022-10-16T00:32:17;3.83;;;1.75;;
36321;SDS011;23564;48.290;11.460;2022-10-16T00:34:43;3.70;;;2.10;;
36321;SDS011;23564;48.290;11.460;2022-10-16T00:37:09;4.40;;;1.95;;
36321;SDS011;23564;48.290;11.460;2022-10-16T00:39:34;4.65;;;2.15;;
36321;SDS011;23564;48.290;11.460;2022-10-16T00:42:00;3.47;;;2.05;;
36321;SDS011;23564;48.290;11.460;2022-10-16T00:47:25;4.97;;;2.17;;
36321;SDS011;23564;48.290;11.460;2022-10-16T00:49:56;3.53;;;2.20;;
36321;SDS011;23564;48.290;11.460;2022-10-16T00:52:46;7.45;;;2.30;;
36321;SDS011;23564;48.290;11.460;2022-10-16T00:55:14;4.47;;;1.65;;
36321;SDS011;23564;48.290;11.460;2022-10-16T00:57:39;2.22;;;1.48;;
36321;SDS011;23564;48.290;11.460;2022-10-16T01:00:07;2.88;;;1.88;;
36321;SDS011;23564;48.290;11.460;2022-10-16T01:02:34;4.05;;;1.77;;
36321;SDS011;23564;48.290;11.460;2022-10-16T01:05:00;3.50;;;2.03;;
36321;SDS011;23564;48.290;11.460;2022-10-16T01:10:14;3.78;;;1.80;;
36321;SDS011;23564;48.290;11.460;2022-10-16T01:15:45;9.52;;;2.78;;
36321;SDS011;23564;48.290;11.460;2022-10-16T01:18:19;4.72;;;1.95;;
36321;SDS011;23564;48.290;11.460;2022-10-16T01:23:32;4.25;;;1.55;;
36321;SDS011;23564;48.290;11.460;2022-10-16T01:26:41;8.23;;;1.70;;
36321;SDS011;23564;48.290;11.460;2022-10-16T01:29:18;3.38;;;1.70;;
36321;SDS011;23564;48.290;11.460;2022-10-16T01:31:56;3.78;;;1.92;;
36321;SDS011;23564;48.290;11.460;2022-10-16T01:34:30;6.35;;;1.98;;
36321;SDS011;23564;48.290;11.460;2022-10-16T01:37:08;8.30;;;1.70;;
36321;SDS011;23564;48.290;11.460;2022-10-16T01:39:37;5.88;;;2.03;;
36321;SDS011;23564;48.290;11.460;2022-10-16T01:42:07;3.00;;;1.60;;
36321;SDS011;23564;48.290;11.460;2022-10-16T01:44:40;3.35;;;2.05;;
36321;SDS011;23564;48.290;11.460;2022-10-16T01:47:08;6.72;;;1.70;;
36321;SDS011;23564;48.290;11.460;2022-10-16T01:49:35;5.18;;;1.88;;
36321;SDS011;23564;48.290;11.460;2022-10-16T01:52:05;5.05;;;1.60;;
36321;SDS011;23564;48.290;11.460;2022-10-16T01:54:42;5.72;;;1.80;;
36321;SDS011;23564;48.290;11.460;2022-10-16T01:57:11;2.55;;;1.60;;
36321;SDS011;23564;48.290;11.460;2022-10-16T01:59:41;4.18;;;2.13;;
36321;SDS011;23564;48.290;11.460;2022-10-16T02:02:10;6.57;;;1.88;;
36321;SDS011;23564;48.290;11.460;2022-10-16T02:04:38;6.18;;;1.70;;
36321;SDS011;23564;48.290;11.460;2022-10-16T02:07:08;6.93;;;1.80;;
36321;SDS011;23564;48.290;11.460;2022-10-16T02:09:35;6.95;;;1.92;;
36321;SDS011;23564;48.290;11.460;2022-10-16T02:12:03;7.10;;;2.10;;
36321;SDS011;23564;48.290;11.460;2022-10-16T02:14:53;3.40;;;1.85;;
36321;SDS011;23564;48.290;11.460;2022-10-16T02:17:19;3.42;;;1.60;;
36321;SDS011;23564;48.290;11.460;2022-10-16T02:19:46;2.97;;;2.15;;
36321;SDS011;23564;48.290;11.460;2022-10-16T02:22:30;6.90;;;1.70;;
36321;SDS011;23564;48.290;11.460;2022-10-16T02:30:43;4.65;;;2.03;;
36321;SDS011;23564;48.290;11.460;2022-10-16T02:33:14;23.77;;;2.77;;
36321;SDS011;23564;48.290;11.460;2022-10-16T02:35:41;3.65;;;1.90;;
36321;SDS011;23564;48.290;11.460;2022-10-16T02:38:09;3.05;;;1.90;;
36321;SDS011;23564;48.290;11.460;2022-10-16T02:40:36;5.68;;;1.88;;
36321;SDS011;23564;48.290;11.460;2022-10-16T02:43:03;4.28;;;1.95;;
36321;SDS011;23564;48.290;11.460;2022-10-16T02:45:29;4.15;;;1.95;;
36321;SDS011;23564;48.290;11.460;2022-10-16T02:47:55;7.03;;;2.03;;
36321;SDS011;23564;48.290;11.460;2022-10-16T02:50:21;2.67;;;1.70;;
36321;SDS011;23564;48.290;11.460;2022-10-16T02:52:47;4.10;;;1.92;;
36321;SDS011;23564;48.290;11.460;2022-10-16T02:55:13;3.38;;;1.67;;
36321;SDS011;23564;48.290;11.460;2022-10-16T02:57:38;4.93;;;1.90;;
36321;SDS011;23564;48.290;11.460;2022-10-16T03:00:05;5.38;;;1.90;;
36321;SDS011;23564;48.290;11.460;2022-10-16T03:02:32;2.78;;;1.67;;
36321;SDS011;23564;48.290;11.460;2022-10-16T03:04:58;6.53;;;1.92;;
36321;SDS011;23564;48.290;11.460;2022-10-16T03:07:23;3.08;;;1.85;;
36321;SDS011;23564;48.290;11.460;2022-10-16T03:09:49;4.15;;;2.25;;
36321;SDS011;23564;48.290;11.460;2022-10-16T03:12:15;2.65;;;1.60;;
36321;SDS011;23564;48.290;11.460;2022-10-16T03:14:40;4.57;;;1.92;;
36321;SDS011;23564;48.290;11.460;2022-10-16T03:17:06;5.30;;;1.58;;
36321;SDS011;23564;48.290;11.460;2022-10-16T03:19:31;5.30;;;1.85;;
36321;SDS011;23564;48.290;11.460;2022-10-16T03:21:57;4.13;;;1.80;;
36321;SDS011;23564;48.290;11.460;2022-10-16T03:24:22;7.05;;;1.85;;
36321;SDS011;23564;48.290;11.460;2022-10-16T03:26:48;3.40;;;1.52;;
36321;SDS011;23564;48.290;11.460;2022-10-16T03:29:13;3.20;;;1.85;;
36321;SDS011;23564;48.290;11.460;2022-10-16T03:31:39;2.33;;;1.33;;
36321;SDS011;23564;48.290;11.460;2022-10-16T03:34:05;2.42;;;1.90;;
36321;SDS011;23564;48.290;11.460;2022-10-16T03:36:30;3.33;;;2.25;;
36321;SDS011;23564;48.290;11.460;2022-10-16T03:38:56;5.38;;;1.85;;
36321;SDS011;23564;48.290;11.460;2022-10-16T03:41:21;5.18;;;2.25;;
36321;SDS011;23564;48.290;11.460;2022-10-16T03:43:47;3.35;;;1.60;;
36321;SDS011;23564;48.290;11.460;2022-10-16T03:46:12;5.45;;;1.88;;
36321;SDS011;23564;48.290;11.460;2022-10-16T03:48:38;2.78;;;1.70;;
36321;SDS011;23564;48.290;11.460;2022-10-16T03:51:04;6.57;;;1.75;;
36321;SDS011;23564;48.290;11.460;2022-10-16T03:53:30;4.22;;;1.60;;
36321;SDS011;23564;48.290;11.460;2022-10-16T03:55:56;3.33;;;1.70;;
36321;SDS011;23564;48.290;11.460;2022-10-16T03:58:21;3.03;;;1.88;;
36321;SDS011;23564;48.290;11.460;2022-10-16T04:00:47;5.03;;;1.65;;
36321;SDS011;23564;48.290;11.460;2022-10-16T04:03:13;3.60;;;1.55;;
36321;SDS011;23564;48.290;11.460;2022-10-16T04:05:39;5.22;;;1.35;;
36321;SDS011;23564;48.290;11.460;2022-10-16T04:08:05;2.72;;;1.38;;
36321;SDS011;23564;48.290;11.460;2022-10-16T04:10:31;8.88;;;1.70;;
36321;SDS011;23564;48.290;11.460;2022-10-16T04:12:56;4.68;;;1.77;;
36321;SDS011;23564;48.290;11.460;2022-10-16T04:15:22;4.10;;;1.85;;
36321;SDS011;23564;48.290;11.460;2022-10-16T04:17:48;4.85;;;1.35;;
36321;SDS011;23564;48.290;11.460;2022-10-16T04:20:14;1.90;;;1.38;;
36321;SDS011;23564;48.290;11.460;2022-10-16T04:22:39;4.78;;;1.63;;
36321;SDS011;23564;48.290;11.460;2022-10-16T04:25:05;2.95;;;1.55;;
36321;SDS011;23564;48.290;11.460;2022-10-16T04:27:31;2.47;;;1.35;;
36321;SDS011;23564;48.290;11.460;2022-10-16T04:29:57;4.75;;;1.50;;
36321;SDS011;23564;48.290;11.460;2022-10-16T04:32:23;3.97;;;1.60;;
36321;SDS011;23564;48.290;11.460;2022-10-16T04:34:48;2.50;;;1.40;;
36321;SDS011;23564;48.290;11.460;2022-10-16T04:37:14;2.22;;;1.55;;
36321;SDS011;23564;48.290;11.460;2022-10-16T04:39:40;3.25;;;1.80;;
36321;SDS011;23564;48.290;11.460;2022-10-16T04:42:05;2.47;;;1.70;;
36321;SDS011;23564;48.290;11.460;2022-10-16T04:44:31;7.47;;;1.90;;
36321;SDS011;23564;48.290;11.460;2022-10-16T04:46:56;9.68;;;1.70;;
36321;SDS011;23564;48.290;11.460;2022-10-16T04:49:22;3.28;;;1.23;;
36321;SDS011;23564;48.290;11.460;2022-10-16T04:51:48;7.35;;;1.80;;
36321;SDS011;23564;48.290;11.460;2022-10-16T04:54:13;3.92;;;1.50;;
36321;SDS011;23564;48.290;11.460;2022-10-16T04:56:39;4.32;;;1.50;;
36321;SDS011;23564;48.290;11.460;2022-10-16T04:59:15;6.88;;;1.73;;
36321;SDS011;23564;48.290;11.460;2022-10-16T05:01:42;4.78;;;1.50;;
36321;SDS011;23564;48.290;11.460;2022-10-16T05:04:08;2.17;;;1.70;;
36321;SDS011;23564;48.290;11.460;2022-10-16T05:06:34;4.60;;;1.60;;
36321;SDS011;23564;48.290;11.460;2022-10-16T05:08:59;2.65;;;1.52;;
36321;SDS011;23564;48.290;11.460;2022-10-16T05:11:25;5.82;;;1.98;;
36321;SDS011;23564;48.290;11.460;2022-10-16T05:13:51;8.23;;;2.58;;
36321;SDS011;23564;48.290;11.460;2022-10-16T05:16:16;7.68;;;2.08;;
36321;SDS011;23564;48.290;11.460;2022-10-16T05:18:42;7.03;;;1.77;;
36321;SDS011;23564;48.290;11.460;2022-10-16T05:21:07;6.30;;;1.88;;
36321;SDS011;23564;48.290;11.460;2022-10-16T05:23:33;7.82;;;2.20;;
36321;SDS011;23564;48.290;11.460;2022-10-16T05:25:59;4.20;;;1.63;;
36321;SDS011;23564;48.290;11.460;2022-10-16T05:28:25;6.65;;;2.25;;
36321;SDS011;23564;48.290;11.460;2022-10-16T05:30:52;6.10;;;2.33;;
36321;SDS011;23564;48.290;11.460;2022-10-16T05:33:19;4.60;;;2.10;;
36321;SDS011;23564;48.290;11.460;2022-10-16T05:35:45;10.63;;;2.63;;
36321;SDS011;23564;48.290;11.460;2022-10-16T05:38:11;8.10;;;2.45;;
36321;SDS011;23564;48.290;11.460;2022-10-16T05:40:37;6.65;;;2.05;;
36321;SDS011;23564;48.290;11.460;2022-10-16T05:43:02;3.35;;;1.85;;
36321;SDS011;23564;48.290;11.460;2022-10-16T05:45:28;4.70;;;2.22;;
36321;SDS011;23564;48.290;11.460;2022-10-16T05:47:54;4.28;;;2.63;;
36321;SDS011;23564;48.290;11.460;2022-10-16T05:50:19;7.82;;;1.92;;
36321;SDS011;23564;48.290;11.460;2022-10-16T05:52:45;5.15;;;2.25;;
36321;SDS011;23564;48.290;11.460;2022-10-16T05:55:10;5.47;;;2.72;;
36321;SDS011;23564;48.290;11.460;2022-10-16T05:57:36;3.22;;;2.30;;
36321;SDS011;23564;48.290;11.460;2022-10-16T06:00:02;4.97;;;2.28;;
36321;SDS011;23564;48.290;11.460;2022-10-16T06:02:28;5.05;;;2.67;;
36321;SDS011;23564;48.290;11.460;2022-10-16T06:04:54;6.95;;;2.75;;
36321;SDS011;23564;48.290;11.460;2022-10-16T06:07:20;6.55;;;3.38;;
36321;SDS011;23564;48.290;11.460;2022-10-16T06:09:49;7.25;;;3.58;;
36321;SDS011;23564;48.290;11.460;2022-10-16T06:12:16;5.80;;;3.45;;
36321;SDS011;23564;48.290;11.460;2022-10-16T06:14:41;5.45;;;3.55;;
36321;SDS011;23564;48.290;11.460;2022-10-16T06:17:07;10.80;;;3.63;;
36321;SDS011;23564;48.290;11.460;2022-10-16T06:19:32;10.02;;;3.88;;
36321;SDS011;23564;48.290;11.460;2022-10-16T06:21:58;6.10;;;2.45;;
36321;SDS011;23564;48.290;11.460;2022-10-16T06:24:24;4.05;;;3.00;;
36321;SDS011;23564;48.290;11.460;2022-10-16T06:26:50;4.75;;;2.80;;
36321;SDS011;23564;48.290;11.460;2022-10-16T06:29:16;4.93;;;3.10;;
36321;SDS011;23564;48.290;11.460;2022-10-16T06:31:41;4.13;;;2.45;;
36321;SDS011;23564;48.290;11.460;2022-10-16T06:34:10;3.25;;;2.38;;
36321;SDS011;23564;48.290;11.460;2022-10-16T06:36:36;7.00;;;2.92;;
36321;SDS011;23564;48.290;11.460;2022-10-16T06:39:03;5.75;;;2.15;;
36321;SDS011;23564;48.290;11.460;2022-10-16T06:41:30;6.35;;;2.20;;
36321;SDS011;23564;48.290;11.460;2022-10-16T06:43:56;3.25;;;2.33;;
36321;SDS011;23564;48.290;11.460;2022-10-16T06:46:22;3.13;;;2.20;;
36321;SDS011;23564;48.290;11.460;2022-10-16T06:48:49;4.38;;;2.90;;
36321;SDS011;23564;48.290;11.460;2022-10-16T06:51:17;4.45;;;2.65;;
36321;SDS011;23564;48.290;11.460;2022-10-16T06:53:49;6.88;;;2.25;;
36321;SDS011;23564;48.290;11.460;2022-10-16T06:56:23;5.63;;;2.65;;
36321;SDS011;23564;48.290;11.460;2022-10-16T06:58:50;3.03;;;2.13;;
36321;SDS011;23564;48.290;11.460;2022-10-16T07:01:16;3.72;;;2.30;;
36321;SDS011;23564;48.290;11.460;2022-10-16T07:03:46;8.02;;;2.60;;
36321;SDS011;23564;48.290;11.460;2022-10-16T07:06:13;3.10;;;1.98;;
36321;SDS011;23564;48.290;11.460;2022-10-16T07:08:41;9.32;;;2.75;;
36321;SDS011;23564;48.290;11.460;2022-10-16T07:11:09;6.57;;;2.47;;
36321;SDS011;23564;48.290;11.460;2022-10-16T07:13:39;5.78;;;2.88;;
36321;SDS011;23564;48.290;11.460;2022-10-16T07:16:10;4.78;;;2.47;;
36321;SDS011;23564;48.290;11.460;2022-10-16T07:18:38;2.88;;;2.20;;
36321;SDS011;23564;48.290;11.460;2022-10-16T07:21:06;9.13;;;2.67;;
36321;SDS011;23564;48.290;11.460;2022-10-16T07:23:33;4.55;;;2.22;;
36321;SDS011;23564;48.290;11.460;2022-10-16T07:25:59;2.60;;;2.10;;
36321;SDS011;23564;48.290;11.460;2022-10-16T07:28:25;4.68;;;2.60;;
36321;SDS011;23564;48.290;11.460;2022-10-16T07:30:50;5.15;;;2.40;;
36321;SDS011;23564;48.290;11.460;2022-10-16T07:33:16;3.03;;;2.38;;
36321;SDS011;23564;48.290;11.460;2022-10-16T07:35:51;4.60;;;2.17;;
36321;SDS011;23564;48.290;11.460;2022-10-16T07:38:18;5.85;;;2.58;;
36321;SDS011;23564;48.290;11.460;2022-10-16T07:40:44;3.03;;;2.22;;
36321;SDS011;23564;48.290;11.460;2022-10-16T07:43:10;3.70;;;2.38;;
36321;SDS011;23564;48.290;11.460;2022-10-16T07:45:36;4.82;;;2.33;;
36321;SDS011;23564;48.290;11.460;2022-10-16T07:48:02;3.40;;;2.33;;
36321;SDS011;23564;48.290;11.460;2022-10-16T07:50:27;3.83;;;2.15;;
36321;SDS011;23564;48.290;11.460;2022-10-16T07:52:53;5.10;;;2.58;;
36321;SDS011;23564;48.290;11.460;2022-10-16T07:55:18;3.47;;;2.35;;
36321;SDS011;23564;48.290;11.460;2022-10-16T07:57:44;5.53;;;2.40;;
36321;SDS011;23564;48.290;11.460;2022-10-16T08:00:10;3.22;;;2.08;;
36321;SDS011;23564;48.290;11.460;2022-10-16T08:02:38;3.53;;;1.95;;
36321;SDS011;23564;48.290;11.460;2022-10-16T08:05:05;5.18;;;2.38;;
36321;SDS011;23564;48.290;11.460;2022-10-16T08:07:31;2.83;;;1.98;;
36321;SDS011;23564;48.290;11.460;2022-10-16T08:09:57;6.03;;;2.38;;
36321;SDS011;23564;48.290;11.460;2022-10-16T08:12:23;4.35;;;2.03;;
36321;SDS011;23564;48.290;11.460;2022-10-16T08:14:50;3.42;;;2.10;;
36321;SDS011;23564;48.290;11.460;2022-10-16T08:17:15;2.70;;;1.95;;
36321;SDS011;23564;48.290;11.460;2022-10-16T08:19:47;8.52;;;2.40;;
36321;SDS011;23564;48.290;11.460;2022-10-16T08:22:13;4.63;;;2.03;;
36321;SDS011;23564;48.290;11.460;2022-10-16T08:24:39;5.63;;;2.63;;
36321;SDS011;23564;48.290;11.460;2022-10-16T08:27:06;8.27;;;2.97;;
36321;SDS011;23564;48.290;11.460;2022-10-16T08:29:31;4.72;;;2.78;;
36321;SDS011;23564;48.290;11.460;2022-10-16T08:31:58;4.20;;;2.60;;
36321;SDS011;23564;48.290;11.460;2022-10-16T08:34:23;5.07;;;2.70;;
36321;SDS011;23564;48.290;11.460;2022-10-16T08:36:49;5.15;;;2.70;;
36321;SDS011;23564;48.290;11.460;2022-10-16T08:39:15;9.82;;;3.30;;
36321;SDS011;23564;48.290;11.460;2022-10-16T08:47:49;3.97;;;2.28;;
36321;SDS011;23564;48.290;11.460;2022-10-16T08:50:26;3.42;;;2.30;;
36321;SDS011;23564;48.290;11.460;2022-10-16T08:52:54;10.95;;;2.38;;
36321;SDS011;23564;48.290;11.460;2022-10-16T08:58:15;4.00;;;2.45;;
36321;SDS011;23564;48.290;11.460;2022-10-16T09:01:03;3.15;;;2.10;;
36321;SDS011;23564;48.290;11.460;2022-10-16T09:06:17;6.18;;;2.38;;
36321;SDS011;23564;48.290;11.460;2022-10-16T09:09:03;4.68;;;2.08;;
36321;SDS011;23564;48.290;11.460;2022-10-16T09:12:25;4.10;;;2.22;;
36321;SDS011;23564;48.290;11.460;2022-10-16T09:15:13;3.20;;;2.15;;
36321;SDS011;23564;48.290;11.460;2022-10-16T09:20:42;3.20;;;2.13;;
36321;SDS011;23564;48.290;11.460;2022-10-16T09:23:21;3.05;;;2.10;;
36321;SDS011;23564;48.290;11.460;2022-10-16T09:25:50;2.83;;;2.10;;
36321;SDS011;23564;48.290;11.460;2022-10-16T09:28:17;4.30;;;2.20;;
36321;SDS011;23564;48.290;11.460;2022-10-16T09:30:43;5.13;;;2.05;;
36321;SDS011;23564;48.290;11.460;2022-10-16T09:33:10;4.63;;;2.40;;
36321;SDS011;23564;48.290;11.460;2022-10-16T09:35:38;4.75;;;2.33;;
36321;SDS011;23564;48.290;11.460;2022-10-16T09:38:08;3.58;;;2.20;;
36321;SDS011;23564;48.290;11.460;2022-10-16T09:40:35;12.13;;;2.67;;
36321;SDS011;23564;48.290;11.460;2022-10-16T09:45:55;4.10;;;2.58;;
36321;SDS011;23564;48.290;11.460;2022-10-16T09:48:25;2.80;;;1.70;;
36321;SDS011;23564;48.290;11.460;2022-10-16T09:51:02;2.53;;;2.00;;
36321;SDS011;23564;48.290;11.460;2022-10-16T09:53:43;4.70;;;1.88;;
36321;SDS011;23564;48.290;11.460;2022-10-16T09:56:11;3.22;;;1.83;;
36321;SDS011;23564;48.290;11.460;2022-10-16T09:58:56;2.13;;;1.73;;
36321;SDS011;23564;48.290;11.460;2022-10-16T10:01:30;4.38;;;2.20;;
36321;SDS011;23564;48.290;11.460;2022-10-16T10:04:02;3.40;;;1.90;;
36321;SDS011;23564;48.290;11.460;2022-10-16T10:06:31;4.72;;;2.08;;
36321;SDS011;23564;48.290;11.460;2022-10-16T10:12:03;1.95;;;1.60;;
36321;SDS011;23564;48.290;11.460;2022-10-16T10:17:11;2.85;;;1.50;;
36321;SDS011;23564;48.290;11.460;2022-10-16T10:19:49;2.38;;;1.55;;
36321;SDS011;23564;48.290;11.460;2022-10-16T10:32:45;3.58;;;1.63;;
36321;SDS011;23564;48.290;11.460;2022-10-16T10:35:26;9.98;;;4.05;;
36321;SDS011;23564;48.290;11.460;2022-10-16T10:38:16;5.20;;;3.05;;
36321;SDS011;23564;48.290;11.460;2022-10-16T10:40:54;3.78;;;1.27;;
36321;SDS011;23564;48.290;11.460;2022-10-16T10:51:50;2.47;;;1.30;;
36321;SDS011;23564;48.290;11.460;2022-10-16T10:54:41;2.40;;;0.90;;
36321;SDS011;23564;48.290;11.460;2022-10-16T11:06:08;1.25;;;0.98;;
36321;SDS011;23564;48.290;11.460;2022-10-16T11:08:47;3.17;;;1.48;;
36321;SDS011;23564;48.290;11.460;2022-10-16T11:14:16;2.70;;;1.02;;
36321;SDS011;23564;48.290;11.460;2022-10-16T11:16:59;3.58;;;1.00;;
36321;SDS011;23564;48.290;11.460;2022-10-16T11:19:35;1.75;;;1.00;;
36321;SDS011;23564;48.290;11.460;2022-10-16T11:22:30;3.63;;;0.75;;
36321;SDS011;23564;48.290;11.460;2022-10-16T11:25:13;1.38;;;0.77;;
36321;SDS011;23564;48.290;11.460;2022-10-16T11:27:44;3.20;;;0.65;;
36321;SDS011;23564;48.290;11.460;2022-10-16T11:30:18;5.20;;;0.73;;
36321;SDS011;23564;48.290;11.460;2022-10-16T11:35:39;0.60;;;0.60;;
36321;SDS011;23564;48.290;11.460;2022-10-16T11:43:56;1.80;;;0.73;;
36321;SDS011;23564;48.290;11.460;2022-10-16T11:46:39;2.10;;;0.63;;
36321;SDS011;23564;48.290;11.460;2022-10-16T11:49:13;4.80;;;0.53;;
36321;SDS011;23564;48.290;11.460;2022-10-16T11:51:45;2.55;;;0.40;;
36321;SDS011;23564;48.290;11.460;2022-10-16T11:57:17;1.35;;;0.60;;
36321;SDS011;23564;48.290;11.460;2022-10-16T11:59:58;0.50;;;0.40;;
36321;SDS011;23564;48.290;11.460;2022-10-16T12:02:53;2.05;;;0.70;;
36321;SDS011;23564;48.290;11.460;2022-10-16T12:05:45;2.20;;;0.55;;
36321;SDS011;23564;48.290;11.460;2022-10-16T12:08:26;2.47;;;0.70;;
36321;SDS011;23564;48.290;11.460;2022-10-16T12:10:52;4.57;;;0.73;;
36321;SDS011;23564;48.290;11.460;2022-10-16T12:13:36;1.02;;;0.73;;
36321;SDS011;23564;48.290;11.460;2022-10-16T12:18:38;0.63;;;0.63;;
36321;SDS011;23564;48.290;11.460;2022-10-16T12:21:11;4.85;;;0.93;;
36321;SDS011;23564;48.290;11.460;2022-10-16T12:23:54;1.02;;;0.77;;
36321;SDS011;23564;48.290;11.460;2022-10-16T12:26:30;1.15;;;0.70;;
36321;SDS011;23564;48.290;11.460;2022-10-16T12:31:46;0.75;;;0.52;;
36321;SDS011;23564;48.290;11.460;2022-10-16T12:37:31;1.85;;;0.70;;
36321;SDS011;23564;48.290;11.460;2022-10-16T12:39:59;2.60;;;0.68;;
36321;SDS011;23564;48.290;11.460;2022-10-16T12:42:49;1.60;;;0.80;;
36321;SDS011;23564;48.290;11.460;2022-10-16T12:45:48;0.75;;;0.57;;
36321;SDS011;23564;48.290;11.460;2022-10-16T12:48:18;1.25;;;0.60;;
36321;SDS011;23564;48.290;11.460;2022-10-16T12:50:46;1.10;;;0.43;;
36321;SDS011;23564;48.290;11.460;2022-10-16T12:53:19;3.60;;;1.05;;
36321;SDS011;23564;48.290;11.460;2022-10-16T12:55:58;0.98;;;0.55;;
36321;SDS011;23564;48.290;11.460;2022-10-16T12:58:51;4.63;;;0.80;;
36321;SDS011;23564;48.290;11.460;2022-10-16T13:01:41;0.50;;;0.50;;
36321;SDS011;23564;48.290;11.460;2022-10-16T13:16:22;2.10;;;0.60;;
36321;SDS011;23564;48.290;11.460;2022-10-16T13:22:05;0.73;;;0.47;;
36321;SDS011;23564;48.290;11.460;2022-10-16T13:25:01;2.53;;;0.63;;
36321;SDS011;23564;48.290;11.460;2022-10-16T13:28:11;0.40;;;0.40;;
36321;SDS011;23564;48.290;11.460;2022-10-16T13:30:35;1.13;;;0.45;;
36321;SDS011;23564;48.290;11.460;2022-10-16T13:35:35;2.28;;;0.50;;
36321;SDS011;23564;48.290;11.460;2022-10-16T13:38:18;1.33;;;0.60;;
36321;SDS011;23564;48.290;11.460;2022-10-16T13:40:49;0.90;;;0.50;;
36321;SDS011;23564;48.290;11.460;2022-10-16T13:43:27;1.02;;;0.60;;
36321;SDS011;23564;48.290;11.460;2022-10-16T13:45:57;1.70;;;0.70;;
36321;SDS011;23564;48.290;11.460;2022-10-16T13:48:24;0.88;;;0.40;;
36321;SDS011;23564;48.290;11.460;2022-10-16T13:53:26;2.65;;;0.50;;
36321;SDS011;23564;48.290;11.460;2022-10-16T13:55:52;2.15;;;0.70;;
36321;SDS011;23564;48.290;11.460;2022-10-16T13:58:17;0.95;;;0.38;;
36321;SDS011;23564;48.290;11.460;2022-10-16T14:00:59;0.40;;;0.40;;
36321;SDS011;23564;48.290;11.460;2022-10-16T14:03:32;1.00;;;0.60;;
36321;SDS011;23564;48.290;11.460;2022-10-16T14:06:01;0.73;;;0.52;;
36321;SDS011;23564;48.290;11.460;2022-10-16T14:08:29;1.27;;;0.50;;
36321;SDS011;23564;48.290;11.460;2022-10-16T14:10:56;0.82;;;0.60;;
36321;SDS011;23564;48.290;11.460;2022-10-16T14:13:56;0.40;;;0.40;;
36321;SDS011;23564;48.290;11.460;2022-10-16T14:18:44;2.55;;;0.70;;
36321;SDS011;23564;48.290;11.460;2022-10-16T14:21:14;1.08;;;0.50;;
36321;SDS011;23564;48.290;11.460;2022-10-16T14:23:41;2.80;;;0.60;;
36321;SDS011;23564;48.290;11.460;2022-10-16T14:28:33;2.70;;;0.47;;
36321;SDS011;23564;48.290;11.460;2022-10-16T14:31:01;0.40;;;0.40;;
36321;SDS011;23564;48.290;11.460;2022-10-16T14:38:34;1.17;;;0.70;;
36321;SDS011;23564;48.290;11.460;2022-10-16T14:41:00;1.50;;;0.50;;
36321;SDS011;23564;48.290;11.460;2022-10-16T14:43:37;1.00;;;0.70;;
36321;SDS011;23564;48.290;11.460;2022-10-16T14:46:15;1.23;;;0.40;;
36321;SDS011;23564;48.290;11.460;2022-10-16T14:48:43;2.00;;;0.63;;
36321;SDS011;23564;48.290;11.460;2022-10-16T14:51:14;3.35;;;0.70;;
36321;SDS011;23564;48.290;11.460;2022-10-16T14:53:41;1.40;;;0.68;;
36321;SDS011;23564;48.290;11.460;2022-10-16T14:56:29;1.85;;;0.75;;
36321;SDS011;23564;48.290;11.460;2022-10-16T14:58:58;2.03;;;0.82;;
36321;SDS011;23564;48.290;11.460;2022-10-16T15:01:25;4.72;;;0.90;;
36321;SDS011;23564;48.290;11.460;2022-10-16T15:03:51;2.05;;;0.90;;
36321;SDS011;23564;48.290;11.460;2022-10-16T15:06:19;1.35;;;0.80;;
36321;SDS011;23564;48.290;11.460;2022-10-16T15:08:45;5.50;;;0.93;;
36321;SDS011;23564;48.290;11.460;2022-10-16T15:11:11;2.78;;;0.70;;
36321;SDS011;23564;48.290;11.460;2022-10-16T15:13:39;2.15;;;0.60;;
36321;SDS011;23564;48.290;11.460;2022-10-16T15:16:07;1.00;;;0.70;;
36321;SDS011;23564;48.290;11.460;2022-10-16T15:18:37;4.10;;;0.60;;
36321;SDS011;23564;48.290;11.460;2022-10-16T15:21:03;1.38;;;0.73;;
36321;SDS011;23564;48.290;11.460;2022-10-16T15:23:29;4.40;;;0.85;;
36321;SDS011;23564;48.290;11.460;2022-10-16T15:25:55;1.58;;;0.90;;
36321;SDS011;23564;48.290;11.460;2022-10-16T15:28:21;5.38;;;0.80;;
36321;SDS011;23564;48.290;11.460;2022-10-16T15:30:49;2.40;;;0.77;;
36321;SDS011;23564;48.290;11.460;2022-10-16T15:33:17;1.58;;;0.80;;
36321;SDS011;23564;48.290;11.460;2022-10-16T15:35:48;1.23;;;0.73;;
36321;SDS011;23564;48.290;11.460;2022-10-16T15:38:17;1.67;;;1.00;;
36321;SDS011;23564;48.290;11.460;2022-10-16T15:40:44;1.77;;;0.80;;
36321;SDS011;23564;48.290;11.460;2022-10-16T15:43:11;4.82;;;0.90;;
36321;SDS011;23564;48.290;11.460;2022-10-16T15:45:36;4.70;;;0.98;;
36321;SDS011;23564;48.290;11.460;2022-10-16T15:48:02;1.70;;;0.82;;
36321;SDS011;23564;48.290;11.460;2022-10-16T15:50:28;1.27;;;0.80;;
36321;SDS011;23564;48.290;11.460;2022-10-16T15:52:55;1.80;;;0.80;;
36321;SDS011;23564;48.290;11.460;2022-10-16T15:55:21;3.95;;;0.98;;
36321;SDS011;23564;48.290;11.460;2022-10-16T15:57:47;4.22;;;1.00;;
36321;SDS011;23564;48.290;11.460;2022-10-16T16:00:16;6.05;;;0.98;;
36321;SDS011;23564;48.290;11.460;2022-10-16T16:02:49;2.88;;;0.90;;
36321;SDS011;23564;48.290;11.460;2022-10-16T16:05:19;2.28;;;1.08;;
36321;SDS011;23564;48.290;11.460;2022-10-16T16:07:45;5.72;;;1.00;;
36321;SDS011;23564;48.290;11.460;2022-10-16T16:10:11;4.00;;;1.13;;
36321;SDS011;23564;48.290;11.460;2022-10-16T16:12:37;2.25;;;1.30;;
36321;SDS011;23564;48.290;11.460;2022-10-16T16:15:03;3.33;;;1.15;;
36321;SDS011;23564;48.290;11.460;2022-10-16T16:17:31;2.63;;;1.40;;
36321;SDS011;23564;48.290;11.460;2022-10-16T16:19:57;4.38;;;1.77;;
36321;SDS011;23564;48.290;11.460;2022-10-16T16:22:23;2.63;;;1.33;;
36321;SDS011;23564;48.290;11.460;2022-10-16T16:24:48;2.30;;;1.42;;
36321;SDS011;23564;48.290;11.460;2022-10-16T16:27:14;5.68;;;1.75;;
36321;SDS011;23564;48.290;11.460;2022-10-16T16:29:40;5.20;;;1.52;;
36321;SDS011;23564;48.290;11.460;2022-10-16T16:32:05;5.22;;;2.35;;
36321;SDS011;23564;48.290;11.460;2022-10-16T16:34:31;3.83;;;2.10;;
36321;SDS011;23564;48.290;11.460;2022-10-16T16:36:57;3.45;;;1.90;;
36321;SDS011;23564;48.290;11.460;2022-10-16T16:39:23;2.63;;;1.73;;
36321;SDS011;23564;48.290;11.460;2022-10-16T16:41:49;7.63;;;1.73;;
36321;SDS011;23564;48.290;11.460;2022-10-16T16:44:15;6.28;;;2.03;;
36321;SDS011;23564;48.290;11.460;2022-10-16T16:46:42;6.00;;;1.67;;
36321;SDS011;23564;48.290;11.460;2022-10-16T16:49:09;2.38;;;1.10;;